sensor_id;sensor_type;location;lat;lon;timestamp;temperature;humidity
22852;DHT22;11592;45.460;9.240;2023-02-26T00:01:16;11.20;99.90
22852;DHT22;11592;45.460;9.240;2023-02-26T00:03:43;11.10;99.90
22852;DHT22;11592;45.460;9.240;2023-02-26T00:06:10;11.00;99.90
22852;DHT22;11592;45.460;9.240;2023-02-26T00:08:37;10.90;99.90
22852;DHT22;11592;45.460;9.240;2023-02-26T00:11:08;10.80;99.90
22852;DHT22;11592;45.460;9.240;2023-02-26T00:13:36;10.80;99.90
22852;DHT22;11592;45.460;9.240;2023-02-26T00:16:09;10.80;99.90
22852;DHT22;11592;45.460;9.240;2023-02-26T00:18:38;10.70;99.90
22852;DHT22;11592;45.460;9.240;2023-02-26T00:21:06;10.70;99.90
22852;DHT22;11592;45.460;9.240;2023-02-26T00:23:33;10.80;99.90
22852;DHT22;11592;45.460;9.240;2023-02-26T00:26:00;10.80;99.90
22852;DHT22;11592;45.460;9.240;2023-02-26T00:28:27;10.80;99.90
22852;DHT22;11592;45.460;9.240;2023-02-26T00:30:54;10.80;99.90
22852;DHT22;11592;45.460;9.240;2023-02-26T00:33:21;10.80;99.90
22852;DHT22;11592;45.460;9.240;2023-02-26T00:35:49;10.80;99.90
22852;DHT22;11592;45.460;9.240;2023-02-26T00:38:22;10.80;99.90
22852;DHT22;11592;45.460;9.240;2023-02-26T00:40:49;10.90;99.90
22852;DHT22;11592;45.460;9.240;2023-02-26T00:43:21;10.90;99.90
22852;DHT22;11592;45.460;9.240;2023-02-26T00:46:02;10.90;99.90
22852;DHT22;11592;45.460;9.240;2023-02-26T00:51:22;10.90;99.90
22852;DHT22;11592;45.460;9.240;2023-02-26T00:54:09;10.80;99.90
22852;DHT22;11592;45.460;9.240;2023-02-26T00:56:38;10.70;99.90
22852;DHT22;11592;45.460;9.240;2023-02-26T00:59:05;10.70;99.90
22852;DHT22;11592;45.460;9.240;2023-02-26T01:01:31;10.70;99.90
22852;DHT22;11592;45.460;9.240;2023-02-26T01:03:58;10.60;99.90
22852;DHT22;11592;45.460;9.240;2023-02-26T01:06:32;10.70;99.90
22852;DHT22;11592;45.460;9.240;2023-02-26T01:11:35;10.70;99.90
22852;DHT22;11592;45.460;9.240;2023-02-26T01:14:03;10.70;99.90
22852;DHT22;11592;45.460;9.240;2023-02-26T01:16:36;10.50;99.90
22852;DHT22;11592;45.460;9.240;2023-02-26T01:20:04;10.40;99.90
22852;DHT22;11592;45.460;9.240;2023-02-26T01:25:05;10.30;99.90
22852;DHT22;11592;45.460;9.240;2023-02-26T01:27:33;10.30;99.90
22852;DHT22;11592;45.460;9.240;2023-02-26T01:30:00;10.20;99.90
22852;DHT22;11592;45.460;9.240;2023-02-26T01:35:29;10.10;99.90
22852;DHT22;11592;45.460;9.240;2023-02-26T01:43:56;9.90;99.90
22852;DHT22;11592;45.460;9.240;2023-02-26T01:49:14;9.90;99.90
22852;DHT22;11592;45.460;9.240;2023-02-26T01:54:23;9.70;99.90
22852;DHT22;11592;45.460;9.240;2023-02-26T01:56:55;9.70;99.90
22852;DHT22;11592;45.460;9.240;2023-02-26T01:59:22;9.70;99.90
22852;DHT22;11592;45.460;9.240;2023-02-26T02:01:53;9.70;99.90
22852;DHT22;11592;45.460;9.240;2023-02-26T02:04:23;9.60;99.90
22852;DHT22;11592;45.460;9.240;2023-02-26T02:06:50;9.60;99.90
22852;DHT22;11592;45.460;9.240;2023-02-26T02:09:18;9.50;99.90
22852;DHT22;11592;45.460;9.240;2023-02-26T02:17:52;9.60;99.90
22852;DHT22;11592;45.460;9.240;2023-02-26T02:28:57;9.20;99.90
22852;DHT22;11592;45.460;9.240;2023-02-26T02:34:15;9.20;99.90
22852;DHT22;11592;45.460;9.240;2023-02-26T02:39:45;9.00;99.90
22852;DHT22;11592;45.460;9.240;2023-02-26T02:44:44;9.10;99.90
22852;DHT22;11592;45.460;9.240;2023-02-26T02:47:14;9.00;99.90
22852;DHT22;11592;45.460;9.240;2023-02-26T02:49:50;9.00;99.90
22852;DHT22;11592;45.460;9.240;2023-02-26T02:52:40;9.00;99.90
22852;DHT22;11592;45.460;9.240;2023-02-26T02:55:16;8.90;99.90
22852;DHT22;11592;45.460;9.240;2023-02-26T02:58:02;8.90;99.90
22852;DHT22;11592;45.460;9.240;2023-02-26T03:00:32;9.00;99.90
22852;DHT22;11592;45.460;9.240;2023-02-26T03:03:20;8.90;99.90
22852;DHT22;11592;45.460;9.240;2023-02-26T03:05:50;8.90;99.90
22852;DHT22;11592;45.460;9.240;2023-02-26T03:08:21;8.90;99.90
22852;DHT22;11592;45.460;9.240;2023-02-26T03:10:48;8.80;99.90
22852;DHT22;11592;45.460;9.240;2023-02-26T03:13:17;8.90;99.90
22852;DHT22;11592;45.460;9.240;2023-02-26T03:22:05;8.80;99.90
22852;DHT22;11592;45.460;9.240;2023-02-26T03:24:44;8.80;99.90
22852;DHT22;11592;45.460;9.240;2023-02-26T03:27:21;8.70;99.90
22852;DHT22;11592;45.460;9.240;2023-02-26T03:29:57;8.90;99.90
22852;DHT22;11592;45.460;9.240;2023-02-26T03:32:46;8.90;99.90
22852;DHT22;11592;45.460;9.240;2023-02-26T03:37:56;8.80;99.90
22852;DHT22;11592;45.460;9.240;2023-02-26T03:40:28;8.80;99.90
22852;DHT22;11592;45.460;9.240;2023-02-26T03:43:04;8.80;99.90
22852;DHT22;11592;45.460;9.240;2023-02-26T03:45:37;8.70;99.90
22852;DHT22;11592;45.460;9.240;2023-02-26T03:48:07;8.90;99.90
22852;DHT22;11592;45.460;9.240;2023-02-26T03:50:42;8.90;99.90
22852;DHT22;11592;45.460;9.240;2023-02-26T03:53:11;9.00;99.90
22852;DHT22;11592;45.460;9.240;2023-02-26T03:58:30;8.70;99.90
22852;DHT22;11592;45.460;9.240;2023-02-26T04:01:05;8.60;99.90
22852;DHT22;11592;45.460;9.240;2023-02-26T04:03:39;8.50;99.90
22852;DHT22;11592;45.460;9.240;2023-02-26T04:06:08;8.40;99.90
22852;DHT22;11592;45.460;9.240;2023-02-26T04:08:35;8.50;99.90
22852;DHT22;11592;45.460;9.240;2023-02-26T04:11:15;8.50;99.90
22852;DHT22;11592;45.460;9.240;2023-02-26T04:13:43;8.50;99.90
22852;DHT22;11592;45.460;9.240;2023-02-26T04:16:10;8.40;99.90
22852;DHT22;11592;45.460;9.240;2023-02-26T04:18:37;8.40;99.90
22852;DHT22;11592;45.460;9.240;2023-02-26T04:21:04;8.40;99.90
22852;DHT22;11592;45.460;9.240;2023-02-26T04:23:32;8.50;99.90
22852;DHT22;11592;45.460;9.240;2023-02-26T04:25:59;8.50;99.90
22852;DHT22;11592;45.460;9.240;2023-02-26T04:28:25;8.40;99.90
22852;DHT22;11592;45.460;9.240;2023-02-26T04:30:52;8.30;99.90
22852;DHT22;11592;45.460;9.240;2023-02-26T04:33:19;8.40;99.90
22852;DHT22;11592;45.460;9.240;2023-02-26T04:35:46;8.30;99.90
22852;DHT22;11592;45.460;9.240;2023-02-26T04:38:13;8.30;99.90
22852;DHT22;11592;45.460;9.240;2023-02-26T04:40:39;8.30;99.90
22852;DHT22;11592;45.460;9.240;2023-02-26T04:43:06;8.40;99.90
22852;DHT22;11592;45.460;9.240;2023-02-26T04:45:33;8.50;99.90
22852;DHT22;11592;45.460;9.240;2023-02-26T04:47:59;8.40;99.90
22852;DHT22;11592;45.460;9.240;2023-02-26T04:50:26;8.40;99.90
22852;DHT22;11592;45.460;9.240;2023-02-26T04:52:53;8.60;99.90
22852;DHT22;11592;45.460;9.240;2023-02-26T04:55:20;8.70;99.90
22852;DHT22;11592;45.460;9.240;2023-02-26T04:57:47;8.80;99.90
22852;DHT22;11592;45.460;9.240;2023-02-26T05:00:14;8.90;99.90
22852;DHT22;11592;45.460;9.240;2023-02-26T05:02:41;9.00;99.90
22852;DHT22;11592;45.460;9.240;2023-02-26T05:05:08;9.00;99.90
22852;DHT22;11592;45.460;9.240;2023-02-26T05:07:35;9.00;99.90
22852;DHT22;11592;45.460;9.240;2023-02-26T05:10:04;9.00;99.90
22852;DHT22;11592;45.460;9.240;2023-02-26T05:12:30;9.00;99.90
22852;DHT22;11592;45.460;9.240;2023-02-26T05:14:57;9.10;99.90
22852;DHT22;11592;45.460;9.240;2023-02-26T05:17:24;9.20;99.90
22852;DHT22;11592;45.460;9.240;2023-02-26T05:19:51;9.20;99.90
22852;DHT22;11592;45.460;9.240;2023-02-26T05:22:18;9.30;99.90
22852;DHT22;11592;45.460;9.240;2023-02-26T05:24:44;9.20;99.90
22852;DHT22;11592;45.460;9.240;2023-02-26T05:27:11;9.20;99.90
22852;DHT22;11592;45.460;9.240;2023-02-26T05:29:38;9.20;99.90
22852;DHT22;11592;45.460;9.240;2023-02-26T05:32:07;9.20;99.90
22852;DHT22;11592;45.460;9.240;2023-02-26T05:34:34;9.30;99.90
22852;DHT22;11592;45.460;9.240;2023-02-26T05:37:01;9.40;99.90
22852;DHT22;11592;45.460;9.240;2023-02-26T05:39:28;9.30;99.90
22852;DHT22;11592;45.460;9.240;2023-02-26T05:41:55;9.30;99.90
22852;DHT22;11592;45.460;9.240;2023-02-26T05:44:22;9.10;99.90
22852;DHT22;11592;45.460;9.240;2023-02-26T05:46:49;9.00;99.90
22852;DHT22;11592;45.460;9.240;2023-02-26T05:49:16;9.00;99.90
22852;DHT22;11592;45.460;9.240;2023-02-26T05:51:43;9.10;99.90
22852;DHT22;11592;45.460;9.240;2023-02-26T05:54:09;8.90;99.90
22852;DHT22;11592;45.460;9.240;2023-02-26T05:56:36;9.00;99.90
22852;DHT22;11592;45.460;9.240;2023-02-26T05:59:03;9.10;99.90
22852;DHT22;11592;45.460;9.240;2023-02-26T06:01:30;9.10;99.90
22852;DHT22;11592;45.460;9.240;2023-02-26T06:03:57;8.90;99.90
22852;DHT22;11592;45.460;9.240;2023-02-26T06:06:24;9.00;99.90
22852;DHT22;11592;45.460;9.240;2023-02-26T06:08:52;9.00;99.90
22852;DHT22;11592;45.460;9.240;2023-02-26T06:11:20;8.90;99.90
22852;DHT22;11592;45.460;9.240;2023-02-26T06:13:47;8.90;99.90
22852;DHT22;11592;45.460;9.240;2023-02-26T06:16:13;8.90;99.90
22852;DHT22;11592;45.460;9.240;2023-02-26T06:18:40;9.00;99.90
22852;DHT22;11592;45.460;9.240;2023-02-26T06:21:07;8.90;99.90
22852;DHT22;11592;45.460;9.240;2023-02-26T06:23:34;8.90;99.90
22852;DHT22;11592;45.460;9.240;2023-02-26T06:26:02;8.90;99.90
22852;DHT22;11592;45.460;9.240;2023-02-26T06:28:28;8.90;99.90
22852;DHT22;11592;45.460;9.240;2023-02-26T06:30:55;8.80;99.90
22852;DHT22;11592;45.460;9.240;2023-02-26T06:33:23;8.80;99.90
22852;DHT22;11592;45.460;9.240;2023-02-26T06:35:50;8.80;99.90
22852;DHT22;11592;45.460;9.240;2023-02-26T06:38:17;8.60;99.90
22852;DHT22;11592;45.460;9.240;2023-02-26T06:40:46;8.50;99.90
22852;DHT22;11592;45.460;9.240;2023-02-26T06:43:13;8.60;99.90
22852;DHT22;11592;45.460;9.240;2023-02-26T06:45:40;8.50;99.90
22852;DHT22;11592;45.460;9.240;2023-02-26T06:48:07;8.30;99.90
22852;DHT22;11592;45.460;9.240;2023-02-26T06:50:33;8.40;99.90
22852;DHT22;11592;45.460;9.240;2023-02-26T06:53:00;8.30;99.90
22852;DHT22;11592;45.460;9.240;2023-02-26T06:55:27;8.30;99.90
22852;DHT22;11592;45.460;9.240;2023-02-26T06:57:55;8.30;99.90
22852;DHT22;11592;45.460;9.240;2023-02-26T07:00:22;8.30;99.90
22852;DHT22;11592;45.460;9.240;2023-02-26T07:02:51;8.30;99.90
22852;DHT22;11592;45.460;9.240;2023-02-26T07:05:18;8.20;99.90
22852;DHT22;11592;45.460;9.240;2023-02-26T07:07:45;8.10;99.90
22852;DHT22;11592;45.460;9.240;2023-02-26T07:10:12;8.10;99.90
22852;DHT22;11592;45.460;9.240;2023-02-26T07:12:39;8.10;99.90
22852;DHT22;11592;45.460;9.240;2023-02-26T07:15:07;8.10;99.90
22852;DHT22;11592;45.460;9.240;2023-02-26T07:17:34;8.00;99.90
22852;DHT22;11592;45.460;9.240;2023-02-26T07:20:00;8.00;99.90
22852;DHT22;11592;45.460;9.240;2023-02-26T07:22:32;8.00;99.90
22852;DHT22;11592;45.460;9.240;2023-02-26T07:24:59;7.90;99.90
22852;DHT22;11592;45.460;9.240;2023-02-26T07:27:26;7.80;99.90
22852;DHT22;11592;45.460;9.240;2023-02-26T07:29:53;7.90;99.90
22852;DHT22;11592;45.460;9.240;2023-02-26T07:32:20;7.80;99.90
22852;DHT22;11592;45.460;9.240;2023-02-26T07:34:47;8.00;99.90
22852;DHT22;11592;45.460;9.240;2023-02-26T07:37:14;7.90;99.90
22852;DHT22;11592;45.460;9.240;2023-02-26T07:39:41;7.90;99.90
22852;DHT22;11592;45.460;9.240;2023-02-26T07:42:08;7.90;99.90
22852;DHT22;11592;45.460;9.240;2023-02-26T07:44:34;7.70;99.90
22852;DHT22;11592;45.460;9.240;2023-02-26T07:47:02;7.70;99.90
22852;DHT22;11592;45.460;9.240;2023-02-26T07:49:29;7.80;99.90
22852;DHT22;11592;45.460;9.240;2023-02-26T07:51:55;7.80;99.90
22852;DHT22;11592;45.460;9.240;2023-02-26T07:54:22;7.80;99.90
22852;DHT22;11592;45.460;9.240;2023-02-26T07:56:49;7.80;99.90
22852;DHT22;11592;45.460;9.240;2023-02-26T07:59:16;7.70;99.90
22852;DHT22;11592;45.460;9.240;2023-02-26T08:01:43;7.50;99.90
22852;DHT22;11592;45.460;9.240;2023-02-26T08:04:10;7.50;99.90
22852;DHT22;11592;45.460;9.240;2023-02-26T08:06:37;7.30;99.90
22852;DHT22;11592;45.460;9.240;2023-02-26T08:09:03;7.30;99.90
22852;DHT22;11592;45.460;9.240;2023-02-26T08:11:31;7.40;99.90
22852;DHT22;11592;45.460;9.240;2023-02-26T08:14:01;7.40;99.90
22852;DHT22;11592;45.460;9.240;2023-02-26T08:16:28;7.40;99.90
22852;DHT22;11592;45.460;9.240;2023-02-26T08:18:55;7.40;99.90
22852;DHT22;11592;45.460;9.240;2023-02-26T08:21:22;7.50;99.90
22852;DHT22;11592;45.460;9.240;2023-02-26T08:23:49;7.50;99.90
22852;DHT22;11592;45.460;9.240;2023-02-26T08:26:16;7.40;99.90
22852;DHT22;11592;45.460;9.240;2023-02-26T08:28:43;7.40;99.90
22852;DHT22;11592;45.460;9.240;2023-02-26T08:31:09;7.40;99.90
22852;DHT22;11592;45.460;9.240;2023-02-26T08:33:36;7.30;99.90
22852;DHT22;11592;45.460;9.240;2023-02-26T08:36:03;7.30;99.90
22852;DHT22;11592;45.460;9.240;2023-02-26T08:38:31;7.40;99.90
22852;DHT22;11592;45.460;9.240;2023-02-26T08:40:57;7.50;99.90
22852;DHT22;11592;45.460;9.240;2023-02-26T08:43:24;7.40;99.90
22852;DHT22;11592;45.460;9.240;2023-02-26T08:45:53;7.50;99.90
22852;DHT22;11592;45.460;9.240;2023-02-26T08:48:20;7.50;99.90
22852;DHT22;11592;45.460;9.240;2023-02-26T08:50:47;7.50;99.90
22852;DHT22;11592;45.460;9.240;2023-02-26T08:53:14;7.50;99.90
22852;DHT22;11592;45.460;9.240;2023-02-26T08:55:41;7.40;99.90
22852;DHT22;11592;45.460;9.240;2023-02-26T08:58:10;7.50;99.90
22852;DHT22;11592;45.460;9.240;2023-02-26T09:00:37;7.50;99.90
22852;DHT22;11592;45.460;9.240;2023-02-26T09:03:03;7.60;99.90
22852;DHT22;11592;45.460;9.240;2023-02-26T09:05:30;7.70;99.90
22852;DHT22;11592;45.460;9.240;2023-02-26T09:07:57;7.80;99.90
22852;DHT22;11592;45.460;9.240;2023-02-26T09:10:24;7.80;99.90
22852;DHT22;11592;45.460;9.240;2023-02-26T09:12:51;7.80;99.90
22852;DHT22;11592;45.460;9.240;2023-02-26T09:15:18;7.80;99.90
22852;DHT22;11592;45.460;9.240;2023-02-26T09:17:45;7.80;99.90
22852;DHT22;11592;45.460;9.240;2023-02-26T09:20:14;7.70;99.90
22852;DHT22;11592;45.460;9.240;2023-02-26T09:22:41;7.70;99.90
22852;DHT22;11592;45.460;9.240;2023-02-26T09:25:08;7.70;99.90
22852;DHT22;11592;45.460;9.240;2023-02-26T09:27:35;7.80;99.90
22852;DHT22;11592;45.460;9.240;2023-02-26T09:30:03;7.80;99.90
22852;DHT22;11592;45.460;9.240;2023-02-26T09:32:31;7.80;99.90
22852;DHT22;11592;45.460;9.240;2023-02-26T09:34:58;7.70;99.90
22852;DHT22;11592;45.460;9.240;2023-02-26T09:37:24;7.70;99.90
22852;DHT22;11592;45.460;9.240;2023-02-26T09:39:51;7.70;99.90
22852;DHT22;11592;45.460;9.240;2023-02-26T09:42:42;7.80;99.90
22852;DHT22;11592;45.460;9.240;2023-02-26T09:45:24;7.70;99.90
22852;DHT22;11592;45.460;9.240;2023-02-26T09:47:53;7.60;99.90
22852;DHT22;11592;45.460;9.240;2023-02-26T09:50:22;7.70;99.90
22852;DHT22;11592;45.460;9.240;2023-02-26T09:55:33;7.60;99.90
22852;DHT22;11592;45.460;9.240;2023-02-26T09:58:08;7.60;99.90
22852;DHT22;11592;45.460;9.240;2023-02-26T10:00:45;7.70;99.90
22852;DHT22;11592;45.460;9.240;2023-02-26T10:03:24;7.70;99.90
22852;DHT22;11592;45.460;9.240;2023-02-26T10:06:14;7.80;99.90
22852;DHT22;11592;45.460;9.240;2023-02-26T10:11:52;7.80;99.90
22852;DHT22;11592;45.460;9.240;2023-02-26T10:14:47;7.80;99.90
22852;DHT22;11592;45.460;9.240;2023-02-26T10:20:19;7.80;99.90
22852;DHT22;11592;45.460;9.240;2023-02-26T10:25:45;7.70;99.90
22852;DHT22;11592;45.460;9.240;2023-02-26T10:28:37;7.80;99.90
22852;DHT22;11592;45.460;9.240;2023-02-26T10:37:01;7.80;99.90
22852;DHT22;11592;45.460;9.240;2023-02-26T10:39:43;7.70;99.90
22852;DHT22;11592;45.460;9.240;2023-02-26T10:42:20;7.60;99.90
22852;DHT22;11592;45.460;9.240;2023-02-26T10:45:09;7.60;99.90
22852;DHT22;11592;45.460;9.240;2023-02-26T10:47:52;7.70;99.90
22852;DHT22;11592;45.460;9.240;2023-02-26T10:50:21;7.70;99.90
22852;DHT22;11592;45.460;9.240;2023-02-26T10:52:49;7.70;99.90
22852;DHT22;11592;45.460;9.240;2023-02-26T11:00:33;7.60;99.90
22852;DHT22;11592;45.460;9.240;2023-02-26T11:03:03;7.60;99.90
22852;DHT22;11592;45.460;9.240;2023-02-26T11:05:32;7.60;99.90
22852;DHT22;11592;45.460;9.240;2023-02-26T11:08:02;7.70;99.90
22852;DHT22;11592;45.460;9.240;2023-02-26T11:10:52;7.60;99.90
22852;DHT22;11592;45.460;9.240;2023-02-26T11:13:25;7.70;99.90
22852;DHT22;11592;45.460;9.240;2023-02-26T11:15:54;7.70;99.90
22852;DHT22;11592;45.460;9.240;2023-02-26T11:18:29;7.60;99.90
22852;DHT22;11592;45.460;9.240;2023-02-26T11:20:57;7.60;99.90
22852;DHT22;11592;45.460;9.240;2023-02-26T11:23:28;7.70;99.90
22852;DHT22;11592;45.460;9.240;2023-02-26T11:26:04;7.70;99.90
22852;DHT22;11592;45.460;9.240;2023-02-26T11:28:54;7.70;99.90
22852;DHT22;11592;45.460;9.240;2023-02-26T11:31:22;7.90;99.90
22852;DHT22;11592;45.460;9.240;2023-02-26T11:33:53;8.00;99.90
22852;DHT22;11592;45.460;9.240;2023-02-26T11:36:26;8.10;99.90
22852;DHT22;11592;45.460;9.240;2023-02-26T11:39:04;8.10;99.90
22852;DHT22;11592;45.460;9.240;2023-02-26T11:41:37;8.10;99.90
22852;DHT22;11592;45.460;9.240;2023-02-26T11:44:09;8.20;99.90
22852;DHT22;11592;45.460;9.240;2023-02-26T11:46:44;8.30;99.90
22852;DHT22;11592;45.460;9.240;2023-02-26T11:49:16;8.40;99.90
22852;DHT22;11592;45.460;9.240;2023-02-26T11:51:47;8.50;99.90
22852;DHT22;11592;45.460;9.240;2023-02-26T11:54:23;8.50;99.90
22852;DHT22;11592;45.460;9.240;2023-02-26T11:56:50;8.40;99.90
22852;DHT22;11592;45.460;9.240;2023-02-26T11:59:23;8.20;99.90
22852;DHT22;11592;45.460;9.240;2023-02-26T12:01:51;8.00;99.90
22852;DHT22;11592;45.460;9.240;2023-02-26T12:04:21;7.80;99.90
22852;DHT22;11592;45.460;9.240;2023-02-26T12:06:51;7.70;99.90
22852;DHT22;11592;45.460;9.240;2023-02-26T12:09:19;7.50;99.90
22852;DHT22;11592;45.460;9.240;2023-02-26T12:11:51;7.40;99.90
22852;DHT22;11592;45.460;9.240;2023-02-26T12:14:49;7.40;99.90
22852;DHT22;11592;45.460;9.240;2023-02-26T12:25:56;7.10;99.90
22852;DHT22;11592;45.460;9.240;2023-02-26T12:28:38;7.10;99.90
22852;DHT22;11592;45.460;9.240;2023-02-26T12:34:10;7.00;99.90
22852;DHT22;11592;45.460;9.240;2023-02-26T12:36:54;7.10;99.90
22852;DHT22;11592;45.460;9.240;2023-02-26T12:40:02;7.10;99.90
22852;DHT22;11592;45.460;9.240;2023-02-26T12:53:44;7.10;99.90
22852;DHT22;11592;45.460;9.240;2023-02-26T12:56:46;7.30;99.90
22852;DHT22;11592;45.460;9.240;2023-02-26T13:07:51;7.40;99.90
22852;DHT22;11592;45.460;9.240;2023-02-26T13:13:07;7.30;99.90
22852;DHT22;11592;45.460;9.240;2023-02-26T13:15:55;7.30;99.90
22852;DHT22;11592;45.460;9.240;2023-02-26T13:21:14;7.40;99.90
22852;DHT22;11592;45.460;9.240;2023-02-26T13:26:20;7.50;99.90
22852;DHT22;11592;45.460;9.240;2023-02-26T13:28:56;7.50;99.90
22852;DHT22;11592;45.460;9.240;2023-02-26T13:31:52;7.60;99.90
22852;DHT22;11592;45.460;9.240;2023-02-26T13:37:04;7.70;99.90
22852;DHT22;11592;45.460;9.240;2023-02-26T13:57:08;7.60;99.90
22852;DHT22;11592;45.460;9.240;2023-02-26T14:06:47;7.80;99.90
22852;DHT22;11592;45.460;9.240;2023-02-26T14:16:52;8.20;99.90
22852;DHT22;11592;45.460;9.240;2023-02-26T14:25:04;8.10;99.90
22852;DHT22;11592;45.460;9.240;2023-02-26T14:27:41;8.30;99.90
22852;DHT22;11592;45.460;9.240;2023-02-26T14:32:52;8.20;99.90
22852;DHT22;11592;45.460;9.240;2023-02-26T14:35:25;8.10;99.90
22852;DHT22;11592;45.460;9.240;2023-02-26T14:38:20;8.10;99.90
22852;DHT22;11592;45.460;9.240;2023-02-26T14:40:54;8.30;99.90
22852;DHT22;11592;45.460;9.240;2023-02-26T14:43:33;8.20;99.90
22852;DHT22;11592;45.460;9.240;2023-02-26T14:46:03;8.20;99.90
22852;DHT22;11592;45.460;9.240;2023-02-26T14:48:31;8.30;99.90
22852;DHT22;11592;45.460;9.240;2023-02-26T14:51:07;8.10;99.90
22852;DHT22;11592;45.460;9.240;2023-02-26T14:54:00;8.10;99.90
22852;DHT22;11592;45.460;9.240;2023-02-26T14:56:58;8.30;99.90
22852;DHT22;11592;45.460;9.240;2023-02-26T14:59:34;8.20;99.90
22852;DHT22;11592;45.460;9.240;2023-02-26T15:07:50;8.20;99.90
22852;DHT22;11592;45.460;9.240;2023-02-26T15:10:36;8.20;99.90
22852;DHT22;11592;45.460;9.240;2023-02-26T15:13:18;8.20;99.90
22852;DHT22;11592;45.460;9.240;2023-02-26T15:18:55;8.10;99.90
22852;DHT22;11592;45.460;9.240;2023-02-26T15:24:18;8.00;99.90
22852;DHT22;11592;45.460;9.240;2023-02-26T15:26:50;7.80;99.90
22852;DHT22;11592;45.460;9.240;2023-02-26T15:29:21;7.80;99.90
22852;DHT22;11592;45.460;9.240;2023-02-26T15:31:59;7.70;99.90
22852;DHT22;11592;45.460;9.240;2023-02-26T15:34:29;7.60;99.90
22852;DHT22;11592;45.460;9.240;2023-02-26T15:36:56;7.60;99.90
22852;DHT22;11592;45.460;9.240;2023-02-26T15:39:24;7.60;99.90
22852;DHT22;11592;45.460;9.240;2023-02-26T15:41:52;7.40;99.90
22852;DHT22;11592;45.460;9.240;2023-02-26T15:44:30;7.40;99.90
22852;DHT22;11592;45.460;9.240;2023-02-26T15:47:01;7.10;99.90
22852;DHT22;11592;45.460;9.240;2023-02-26T15:49:36;7.10;99.90
22852;DHT22;11592;45.460;9.240;2023-02-26T15:52:05;7.00;99.90
22852;DHT22;11592;45.460;9.240;2023-02-26T15:54:37;6.80;99.90
22852;DHT22;11592;45.460;9.240;2023-02-26T15:57:05;6.80;99.90
22852;DHT22;11592;45.460;9.240;2023-02-26T15:59:36;6.60;99.90
22852;DHT22;11592;45.460;9.240;2023-02-26T16:02:14;6.50;99.90
22852;DHT22;11592;45.460;9.240;2023-02-26T16:04:42;6.60;99.90
22852;DHT22;11592;45.460;9.240;2023-02-26T16:07:11;6.70;99.90
22852;DHT22;11592;45.460;9.240;2023-02-26T16:09:48;6.70;99.90
22852;DHT22;11592;45.460;9.240;2023-02-26T16:12:18;6.70;99.90
22852;DHT22;11592;45.460;9.240;2023-02-26T16:15:13;6.50;99.90
22852;DHT22;11592;45.460;9.240;2023-02-26T16:17:47;6.50;99.90
22852;DHT22;11592;45.460;9.240;2023-02-26T16:20:18;6.60;99.90
22852;DHT22;11592;45.460;9.240;2023-02-26T16:23:36;6.50;99.90
22852;DHT22;11592;45.460;9.240;2023-02-26T16:25:54;6.50;99.90
22852;DHT22;11592;45.460;9.240;2023-02-26T16:28:30;6.70;99.90
22852;DHT22;11592;45.460;9.240;2023-02-26T16:30:59;6.70;99.90
22852;DHT22;11592;45.460;9.240;2023-02-26T16:33:30;6.70;99.90
22852;DHT22;11592;45.460;9.240;2023-02-26T16:36:04;6.60;99.90
22852;DHT22;11592;45.460;9.240;2023-02-26T16:38:50;6.50;99.90
22852;DHT22;11592;45.460;9.240;2023-02-26T16:41:21;6.60;99.90
22852;DHT22;11592;45.460;9.240;2023-02-26T16:43:54;6.60;99.90
22852;DHT22;11592;45.460;9.240;2023-02-26T16:46:39;6.50;99.90
22852;DHT22;11592;45.460;9.240;2023-02-26T16:51:50;6.50;99.90
22852;DHT22;11592;45.460;9.240;2023-02-26T16:56:46;6.60;99.90
22852;DHT22;11592;45.460;9.240;2023-02-26T16:59:20;6.40;99.90
22852;DHT22;11592;45.460;9.240;2023-02-26T17:01:51;6.30;99.90
22852;DHT22;11592;45.460;9.240;2023-02-26T17:04:22;6.50;99.90
22852;DHT22;11592;45.460;9.240;2023-02-26T17:06:51;6.40;99.90
22852;DHT22;11592;45.460;9.240;2023-02-26T17:09:37;6.40;99.90
22852;DHT22;11592;45.460;9.240;2023-02-26T17:14:37;6.30;99.90
22852;DHT22;11592;45.460;9.240;2023-02-26T17:17:06;6.30;99.90
22852;DHT22;11592;45.460;9.240;2023-02-26T17:19:32;6.40;99.90
22852;DHT22;11592;45.460;9.240;2023-02-26T17:22:00;6.50;99.90
22852;DHT22;11592;45.460;9.240;2023-02-26T17:24:33;6.80;99.90
22852;DHT22;11592;45.460;9.240;2023-02-26T17:27:01;6.80;99.90
22852;DHT22;11592;45.460;9.240;2023-02-26T17:29:35;6.70;99.90
22852;DHT22;11592;45.460;9.240;2023-02-26T17:32:16;6.90;99.90
22852;DHT22;11592;45.460;9.240;2023-02-26T17:34:43;6.90;99.90
22852;DHT22;11592;45.460;9.240;2023-02-26T17:37:14;6.90;99.90
22852;DHT22;11592;45.460;9.240;2023-02-26T17:39:42;6.90;99.90
22852;DHT22;11592;45.460;9.240;2023-02-26T17:42:14;6.80;99.90
22852;DHT22;11592;45.460;9.240;2023-02-26T17:44:42;6.70;99.90
22852;DHT22;11592;45.460;9.240;2023-02-26T17:47:29;6.70;99.90
22852;DHT22;11592;45.460;9.240;2023-02-26T17:49:55;6.70;99.90
22852;DHT22;11592;45.460;9.240;2023-02-26T17:52:23;6.70;99.90
22852;DHT22;11592;45.460;9.240;2023-02-26T17:54:49;6.80;99.90
22852;DHT22;11592;45.460;9.240;2023-02-26T17:57:18;6.80;99.90
22852;DHT22;11592;45.460;9.240;2023-02-26T17:59:46;6.80;99.90
22852;DHT22;11592;45.460;9.240;2023-02-26T18:02:20;6.70;99.90
22852;DHT22;11592;45.460;9.240;2023-02-26T18:04:48;6.60;99.90
22852;DHT22;11592;45.460;9.240;2023-02-26T18:07:16;6.60;99.90
22852;DHT22;11592;45.460;9.240;2023-02-26T18:09:44;6.70;99.90
22852;DHT22;11592;45.460;9.240;2023-02-26T18:12:20;6.70;99.90
22852;DHT22;11592;45.460;9.240;2023-02-26T18:14:47;6.70;99.90
22852;DHT22;11592;45.460;9.240;2023-02-26T18:17:18;6.60;99.90
22852;DHT22;11592;45.460;9.240;2023-02-26T18:19:46;6.60;99.90
22852;DHT22;11592;45.460;9.240;2023-02-26T18:22:16;6.60;99.90
22852;DHT22;11592;45.460;9.240;2023-02-26T18:24:44;6.60;99.90
22852;DHT22;11592;45.460;9.240;2023-02-26T18:27:16;6.50;99.90
22852;DHT22;11592;45.460;9.240;2023-02-26T18:29:45;6.50;99.90
22852;DHT22;11592;45.460;9.240;2023-02-26T18:32:21;6.60;99.90
22852;DHT22;11592;45.460;9.240;2023-02-26T18:34:49;6.50;99.90
22852;DHT22;11592;45.460;9.240;2023-02-26T18:37:20;6.30;99.90
22852;DHT22;11592;45.460;9.240;2023-02-26T18:39:47;6.20;99.90
22852;DHT22;11592;45.460;9.240;2023-02-26T18:42:20;6.30;99.90
22852;DHT22;11592;45.460;9.240;2023-02-26T18:44:48;6.30;99.90
22852;DHT22;11592;45.460;9.240;2023-02-26T18:47:16;6.20;99.90
22852;DHT22;11592;45.460;9.240;2023-02-26T18:49:45;6.20;99.90
22852;DHT22;11592;45.460;9.240;2023-02-26T18:52:12;6.20;99.90
22852;DHT22;11592;45.460;9.240;2023-02-26T18:54:39;6.30;99.90
22852;DHT22;11592;45.460;9.240;2023-02-26T18:57:08;6.30;99.90
22852;DHT22;11592;45.460;9.240;2023-02-26T18:59:35;6.20;99.90
22852;DHT22;11592;45.460;9.240;2023-02-26T19:02:03;6.10;99.90
22852;DHT22;11592;45.460;9.240;2023-02-26T19:04:30;6.00;99.90
22852;DHT22;11592;45.460;9.240;2023-02-26T19:06:58;6.10;99.90
22852;DHT22;11592;45.460;9.240;2023-02-26T19:09:24;6.00;99.90
22852;DHT22;11592;45.460;9.240;2023-02-26T19:11:55;6.00;99.90